sensor_id;sensor_type;location;lat;lon;timestamp;temperature;humidity
21762;DHT22;11203;50.870;20.682;2023-02-12T00:02:19;3.60;1.00
21762;DHT22;11203;50.870;20.682;2023-02-12T00:04:46;3.60;1.00
21762;DHT22;11203;50.870;20.682;2023-02-12T00:07:12;3.60;1.00
21762;DHT22;11203;50.870;20.682;2023-02-12T00:09:39;3.70;1.00
21762;DHT22;11203;50.870;20.682;2023-02-12T00:12:05;3.60;1.00
21762;DHT22;11203;50.870;20.682;2023-02-12T00:14:32;3.70;1.00
21762;DHT22;11203;50.870;20.682;2023-02-12T00:16:59;3.60;99.90
21762;DHT22;11203;50.870;20.682;2023-02-12T00:19:25;3.70;99.90
21762;DHT22;11203;50.870;20.682;2023-02-12T00:21:51;3.60;99.90
21762;DHT22;11203;50.870;20.682;2023-02-12T00:24:17;3.60;99.90
21762;DHT22;11203;50.870;20.682;2023-02-12T00:26:44;3.70;99.90
21762;DHT22;11203;50.870;20.682;2023-02-12T00:29:09;3.60;99.90
21762;DHT22;11203;50.870;20.682;2023-02-12T00:31:37;3.60;99.90
21762;DHT22;11203;50.870;20.682;2023-02-12T00:34:03;3.60;99.90
21762;DHT22;11203;50.870;20.682;2023-02-12T00:36:30;3.60;99.90
21762;DHT22;11203;50.870;20.682;2023-02-12T00:38:57;3.50;99.90
21762;DHT22;11203;50.870;20.682;2023-02-12T00:41:24;3.60;1.00
21762;DHT22;11203;50.870;20.682;2023-02-12T00:43:51;3.50;1.00
21762;DHT22;11203;50.870;20.682;2023-02-12T00:46:18;3.60;1.00
21762;DHT22;11203;50.870;20.682;2023-02-12T00:48:44;3.60;1.00
21762;DHT22;11203;50.870;20.682;2023-02-12T00:51:12;3.50;1.00
21762;DHT22;11203;50.870;20.682;2023-02-12T00:53:38;3.60;1.00
21762;DHT22;11203;50.870;20.682;2023-02-12T00:56:05;3.60;1.00
21762;DHT22;11203;50.870;20.682;2023-02-12T00:58:31;3.50;1.00
21762;DHT22;11203;50.870;20.682;2023-02-12T01:00:58;3.50;1.00
21762;DHT22;11203;50.870;20.682;2023-02-12T01:03:24;3.50;1.00
21762;DHT22;11203;50.870;20.682;2023-02-12T01:05:51;3.60;1.00
21762;DHT22;11203;50.870;20.682;2023-02-12T01:08:17;3.60;1.00
21762;DHT22;11203;50.870;20.682;2023-02-12T01:10:44;3.60;99.90
21762;DHT22;11203;50.870;20.682;2023-02-12T01:13:14;3.50;99.90
21762;DHT22;11203;50.870;20.682;2023-02-12T01:15:41;3.50;99.90
21762;DHT22;11203;50.870;20.682;2023-02-12T01:18:07;3.50;99.90
21762;DHT22;11203;50.870;20.682;2023-02-12T01:20:33;3.40;99.90
21762;DHT22;11203;50.870;20.682;2023-02-12T01:22:59;3.40;99.90
21762;DHT22;11203;50.870;20.682;2023-02-12T01:25:26;3.40;99.90
21762;DHT22;11203;50.870;20.682;2023-02-12T01:27:53;3.40;66.10
21762;DHT22;11203;50.870;20.682;2023-02-12T01:30:19;3.30;99.90
21762;DHT22;11203;50.870;20.682;2023-02-12T01:32:48;3.40;1.00
21762;DHT22;11203;50.870;20.682;2023-02-12T01:35:15;3.40;1.00
21762;DHT22;11203;50.870;20.682;2023-02-12T01:37:41;3.30;1.00
21762;DHT22;11203;50.870;20.682;2023-02-12T01:40:10;3.30;4.40
21762;DHT22;11203;50.870;20.682;2023-02-12T01:42:40;3.30;1.00
21762;DHT22;11203;50.870;20.682;2023-02-12T01:47:43;3.20;1.00
21762;DHT22;11203;50.870;20.682;2023-02-12T01:50:18;3.20;1.00
21762;DHT22;11203;50.870;20.682;2023-02-12T01:52:49;3.20;1.00
21762;DHT22;11203;50.870;20.682;2023-02-12T01:55:18;3.10;1.00
21762;DHT22;11203;50.870;20.682;2023-02-12T01:57:46;3.10;99.90
21762;DHT22;11203;50.870;20.682;2023-02-12T02:00:16;3.10;1.00
21762;DHT22;11203;50.870;20.682;2023-02-12T02:02:46;3.10;99.90
21762;DHT22;11203;50.870;20.682;2023-02-12T02:05:21;3.00;99.90
21762;DHT22;11203;50.870;20.682;2023-02-12T02:07:49;3.00;1.00
21762;DHT22;11203;50.870;20.682;2023-02-12T02:10:15;3.00;1.00
21762;DHT22;11203;50.870;20.682;2023-02-12T02:12:41;3.00;1.00
21762;DHT22;11203;50.870;20.682;2023-02-12T02:15:27;2.90;99.90
21762;DHT22;11203;50.870;20.682;2023-02-12T02:18:14;2.90;99.90
21762;DHT22;11203;50.870;20.682;2023-02-12T02:21:15;2.80;99.90
21762;DHT22;11203;50.870;20.682;2023-02-12T02:32:26;2.60;99.90
21762;DHT22;11203;50.870;20.682;2023-02-12T02:35:03;2.60;99.90
21762;DHT22;11203;50.870;20.682;2023-02-12T02:37:39;2.50;99.90
21762;DHT22;11203;50.870;20.682;2023-02-12T02:40:24;2.50;99.90
21762;DHT22;11203;50.870;20.682;2023-02-12T02:43:15;2.40;1.00
21762;DHT22;11203;50.870;20.682;2023-02-12T02:45:47;2.30;1.00
21762;DHT22;11203;50.870;20.682;2023-02-12T02:48:25;2.30;99.90
21762;DHT22;11203;50.870;20.682;2023-02-12T02:51:00;2.20;1.00
21762;DHT22;11203;50.870;20.682;2023-02-12T02:53:36;2.30;1.00
21762;DHT22;11203;50.870;20.682;2023-02-12T02:56:07;2.20;1.00
21762;DHT22;11203;50.870;20.682;2023-02-12T02:58:43;2.20;1.00
21762;DHT22;11203;50.870;20.682;2023-02-12T03:04:09;2.10;99.90
21762;DHT22;11203;50.870;20.682;2023-02-12T03:06:47;2.10;99.90
21762;DHT22;11203;50.870;20.682;2023-02-12T03:09:37;2.10;99.90
21762;DHT22;11203;50.870;20.682;2023-02-12T03:12:18;2.00;1.00
21762;DHT22;11203;50.870;20.682;2023-02-12T03:14:51;2.00;1.00
21762;DHT22;11203;50.870;20.682;2023-02-12T03:17:33;2.00;1.00
21762;DHT22;11203;50.870;20.682;2023-02-12T03:20:07;2.00;1.00
21762;DHT22;11203;50.870;20.682;2023-02-12T03:23:16;2.00;1.00
21762;DHT22;11203;50.870;20.682;2023-02-12T03:26:05;2.00;1.00
21762;DHT22;11203;50.870;20.682;2023-02-12T03:28:36;2.00;1.00
21762;DHT22;11203;50.870;20.682;2023-02-12T03:31:11;2.00;1.00
21762;DHT22;11203;50.870;20.682;2023-02-12T03:34:12;1.90;1.00
21762;DHT22;11203;50.870;20.682;2023-02-12T03:37:18;1.90;1.00
21762;DHT22;11203;50.870;20.682;2023-02-12T03:43:07;1.80;99.90
21762;DHT22;11203;50.870;20.682;2023-02-12T03:46:00;1.80;99.90
21762;DHT22;11203;50.870;20.682;2023-02-12T03:51:41;1.70;1.00
21762;DHT22;11203;50.870;20.682;2023-02-12T03:54:12;1.70;99.90
21762;DHT22;11203;50.870;20.682;2023-02-12T03:56:45;1.80;99.90
21762;DHT22;11203;50.870;20.682;2023-02-12T03:59:21;1.70;99.90
21762;DHT22;11203;50.870;20.682;2023-02-12T04:01:51;1.70;1.00
21762;DHT22;11203;50.870;20.682;2023-02-12T04:04:19;1.70;99.90
21762;DHT22;11203;50.870;20.682;2023-02-12T04:06:46;1.70;1.00
21762;DHT22;11203;50.870;20.682;2023-02-12T04:09:14;1.70;1.00
21762;DHT22;11203;50.870;20.682;2023-02-12T04:15:24;1.60;1.00
21762;DHT22;11203;50.870;20.682;2023-02-12T04:24:12;1.50;99.90
21762;DHT22;11203;50.870;20.682;2023-02-12T04:26:59;1.50;1.00
21762;DHT22;11203;50.870;20.682;2023-02-12T04:30:04;1.50;1.00
21762;DHT22;11203;50.870;20.682;2023-02-12T04:32:46;1.40;1.00
21762;DHT22;11203;50.870;20.682;2023-02-12T04:38:03;1.40;1.00
21762;DHT22;11203;50.870;20.682;2023-02-12T04:40:30;1.40;1.00
21762;DHT22;11203;50.870;20.682;2023-02-12T04:42:57;1.40;1.00
21762;DHT22;11203;50.870;20.682;2023-02-12T04:45:29;1.50;99.90
21762;DHT22;11203;50.870;20.682;2023-02-12T04:47:56;1.40;41.90
21762;DHT22;11203;50.870;20.682;2023-02-12T04:50:22;1.30;99.90
21762;DHT22;11203;50.870;20.682;2023-02-12T04:52:49;1.30;99.90
21762;DHT22;11203;50.870;20.682;2023-02-12T04:55:15;1.30;1.00
21762;DHT22;11203;50.870;20.682;2023-02-12T04:57:42;1.20;99.90
21762;DHT22;11203;50.870;20.682;2023-02-12T05:00:11;1.20;99.90
21762;DHT22;11203;50.870;20.682;2023-02-12T05:02:39;1.20;99.90
21762;DHT22;11203;50.870;20.682;2023-02-12T05:05:05;1.00;1.00
21762;DHT22;11203;50.870;20.682;2023-02-12T05:07:31;0.90;1.00
21762;DHT22;11203;50.870;20.682;2023-02-12T05:09:57;0.90;1.00
21762;DHT22;11203;50.870;20.682;2023-02-12T05:12:24;0.90;99.90
21762;DHT22;11203;50.870;20.682;2023-02-12T05:14:49;0.80;1.00
21762;DHT22;11203;50.870;20.682;2023-02-12T05:17:16;0.80;1.00
21762;DHT22;11203;50.870;20.682;2023-02-12T05:19:42;0.80;99.90
21762;DHT22;11203;50.870;20.682;2023-02-12T05:22:08;0.80;1.00
21762;DHT22;11203;50.870;20.682;2023-02-12T05:24:34;0.70;99.90
21762;DHT22;11203;50.870;20.682;2023-02-12T05:27:00;0.70;1.00
21762;DHT22;11203;50.870;20.682;2023-02-12T05:29:26;0.60;1.00
21762;DHT22;11203;50.870;20.682;2023-02-12T05:31:52;0.60;1.00
21762;DHT22;11203;50.870;20.682;2023-02-12T05:34:18;0.60;1.00
21762;DHT22;11203;50.870;20.682;2023-02-12T05:36:45;0.50;1.00
21762;DHT22;11203;50.870;20.682;2023-02-12T05:39:11;0.60;1.00
21762;DHT22;11203;50.870;20.682;2023-02-12T05:41:37;0.50;1.00
21762;DHT22;11203;50.870;20.682;2023-02-12T05:44:04;0.40;1.00
21762;DHT22;11203;50.870;20.682;2023-02-12T05:46:31;0.40;1.00
21762;DHT22;11203;50.870;20.682;2023-02-12T05:48:57;0.40;1.00
21762;DHT22;11203;50.870;20.682;2023-02-12T05:51:25;0.40;1.00
21762;DHT22;11203;50.870;20.682;2023-02-12T05:53:56;0.40;1.00
21762;DHT22;11203;50.870;20.682;2023-02-12T05:56:26;0.40;1.00
21762;DHT22;11203;50.870;20.682;2023-02-12T05:59:06;0.30;1.00
21762;DHT22;11203;50.870;20.682;2023-02-12T06:01:41;0.40;1.00
21762;DHT22;11203;50.870;20.682;2023-02-12T06:04:15;0.40;99.90
21762;DHT22;11203;50.870;20.682;2023-02-12T06:06:43;0.40;1.00
21762;DHT22;11203;50.870;20.682;2023-02-12T06:09:10;0.40;1.00
21762;DHT22;11203;50.870;20.682;2023-02-12T06:11:38;0.40;99.90
21762;DHT22;11203;50.870;20.682;2023-02-12T06:14:05;0.30;99.90
21762;DHT22;11203;50.870;20.682;2023-02-12T06:16:33;0.30;99.90
21762;DHT22;11203;50.870;20.682;2023-02-12T06:19:01;0.30;99.90
21762;DHT22;11203;50.870;20.682;2023-02-12T06:21:30;0.30;99.90
21762;DHT22;11203;50.870;20.682;2023-02-12T06:23:56;0.30;99.90
21762;DHT22;11203;50.870;20.682;2023-02-12T06:26:22;0.40;99.90
21762;DHT22;11203;50.870;20.682;2023-02-12T06:28:49;0.40;99.90
21762;DHT22;11203;50.870;20.682;2023-02-12T06:31:20;0.40;99.90
21762;DHT22;11203;50.870;20.682;2023-02-12T06:33:47;0.40;99.90
21762;DHT22;11203;50.870;20.682;2023-02-12T06:36:15;0.40;99.90
21762;DHT22;11203;50.870;20.682;2023-02-12T06:38:41;0.40;99.90
21762;DHT22;11203;50.870;20.682;2023-02-12T06:41:07;0.40;99.90
21762;DHT22;11203;50.870;20.682;2023-02-12T06:43:33;0.40;99.90
21762;DHT22;11203;50.870;20.682;2023-02-12T06:46:00;0.50;1.00
21762;DHT22;11203;50.870;20.682;2023-02-12T06:48:28;0.50;1.00
21762;DHT22;11203;50.870;20.682;2023-02-12T06:50:54;0.60;1.00
21762;DHT22;11203;50.870;20.682;2023-02-12T06:53:20;0.50;1.00
21762;DHT22;11203;50.870;20.682;2023-02-12T06:55:46;0.50;1.00
21762;DHT22;11203;50.870;20.682;2023-02-12T06:58:12;0.60;1.00
21762;DHT22;11203;50.870;20.682;2023-02-12T07:00:38;0.50;1.00
21762;DHT22;11203;50.870;20.682;2023-02-12T07:03:04;0.40;75.00
21762;DHT22;11203;50.870;20.682;2023-02-12T07:05:30;0.50;1.00
21762;DHT22;11203;50.870;20.682;2023-02-12T07:07:57;0.40;1.00
21762;DHT22;11203;50.870;20.682;2023-02-12T07:10:23;0.40;1.00
21762;DHT22;11203;50.870;20.682;2023-02-12T07:12:49;0.40;1.00
21762;DHT22;11203;50.870;20.682;2023-02-12T07:15:15;0.30;1.00
21762;DHT22;11203;50.870;20.682;2023-02-12T07:17:41;0.30;1.00
21762;DHT22;11203;50.870;20.682;2023-02-12T07:20:08;0.30;1.00
21762;DHT22;11203;50.870;20.682;2023-02-12T07:22:35;0.20;1.00
21762;DHT22;11203;50.870;20.682;2023-02-12T07:25:01;0.10;50.50
21762;DHT22;11203;50.870;20.682;2023-02-12T07:27:27;0.10;1.00
21762;DHT22;11203;50.870;20.682;2023-02-12T07:29:53;0.10;1.00
21762;DHT22;11203;50.870;20.682;2023-02-12T07:32:19;0.20;1.00
21762;DHT22;11203;50.870;20.682;2023-02-12T07:34:46;0.20;1.00
21762;DHT22;11203;50.870;20.682;2023-02-12T07:37:12;0.20;1.00
21762;DHT22;11203;50.870;20.682;2023-02-12T07:39:47;0.30;1.00
21762;DHT22;11203;50.870;20.682;2023-02-12T07:42:14;0.30;1.00
21762;DHT22;11203;50.870;20.682;2023-02-12T07:44:40;0.20;1.00
21762;DHT22;11203;50.870;20.682;2023-02-12T07:47:06;0.30;99.90
21762;DHT22;11203;50.870;20.682;2023-02-12T07:49:32;0.30;1.00
21762;DHT22;11203;50.870;20.682;2023-02-12T07:51:58;0.30;1.00
21762;DHT22;11203;50.870;20.682;2023-02-12T07:54:25;0.30;99.90
21762;DHT22;11203;50.870;20.682;2023-02-12T07:56:51;0.30;1.00
21762;DHT22;11203;50.870;20.682;2023-02-12T07:59:18;0.30;1.00
21762;DHT22;11203;50.870;20.682;2023-02-12T08:01:47;0.40;1.00
21762;DHT22;11203;50.870;20.682;2023-02-12T08:04:17;0.40;1.00
21762;DHT22;11203;50.870;20.682;2023-02-12T08:06:49;0.40;99.90
21762;DHT22;11203;50.870;20.682;2023-02-12T08:09:19;0.40;99.90
21762;DHT22;11203;50.870;20.682;2023-02-12T08:11:46;0.40;99.90
21762;DHT22;11203;50.870;20.682;2023-02-12T08:14:15;0.40;99.90
21762;DHT22;11203;50.870;20.682;2023-02-12T08:16:45;0.50;99.90
21762;DHT22;11203;50.870;20.682;2023-02-12T08:19:12;0.40;99.90
21762;DHT22;11203;50.870;20.682;2023-02-12T08:21:39;0.40;1.00
21762;DHT22;11203;50.870;20.682;2023-02-12T08:24:05;0.40;99.90
21762;DHT22;11203;50.870;20.682;2023-02-12T08:26:35;0.50;1.00
21762;DHT22;11203;50.870;20.682;2023-02-12T08:29:05;0.50;1.00
21762;DHT22;11203;50.870;20.682;2023-02-12T08:31:36;0.50;1.00
21762;DHT22;11203;50.870;20.682;2023-02-12T08:34:04;0.50;1.00
21762;DHT22;11203;50.870;20.682;2023-02-12T08:36:39;0.60;1.00
21762;DHT22;11203;50.870;20.682;2023-02-12T08:39:07;0.70;1.00
21762;DHT22;11203;50.870;20.682;2023-02-12T08:41:34;0.70;1.00
21762;DHT22;11203;50.870;20.682;2023-02-12T08:44:01;0.70;99.90
21762;DHT22;11203;50.870;20.682;2023-02-12T08:46:32;0.60;1.00
21762;DHT22;11203;50.870;20.682;2023-02-12T08:49:05;0.70;1.00
21762;DHT22;11203;50.870;20.682;2023-02-12T08:51:35;0.70;1.00
21762;DHT22;11203;50.870;20.682;2023-02-12T08:54:06;0.90;1.00
21762;DHT22;11203;50.870;20.682;2023-02-12T08:56:34;0.90;1.00
21762;DHT22;11203;50.870;20.682;2023-02-12T08:59:03;1.00;1.00
21762;DHT22;11203;50.870;20.682;2023-02-12T09:01:32;1.10;1.00
21762;DHT22;11203;50.870;20.682;2023-02-12T09:04:00;1.10;6.80
21762;DHT22;11203;50.870;20.682;2023-02-12T09:06:27;1.10;1.00
21762;DHT22;11203;50.870;20.682;2023-02-12T09:08:53;1.20;99.90
21762;DHT22;11203;50.870;20.682;2023-02-12T09:11:22;1.20;1.00
21762;DHT22;11203;50.870;20.682;2023-02-12T09:13:58;1.20;99.90
21762;DHT22;11203;50.870;20.682;2023-02-12T09:16:28;1.30;1.00
21762;DHT22;11203;50.870;20.682;2023-02-12T09:18:55;1.30;99.90
21762;DHT22;11203;50.870;20.682;2023-02-12T09:21:22;1.60;1.00
21762;DHT22;11203;50.870;20.682;2023-02-12T09:23:48;1.60;99.90
21762;DHT22;11203;50.870;20.682;2023-02-12T09:26:18;1.40;1.00
21762;DHT22;11203;50.870;20.682;2023-02-12T09:28:45;1.40;1.00
21762;DHT22;11203;50.870;20.682;2023-02-12T09:31:16;1.40;99.90
21762;DHT22;11203;50.870;20.682;2023-02-12T09:33:45;1.40;99.90
21762;DHT22;11203;50.870;20.682;2023-02-12T09:36:14;1.50;1.00
21762;DHT22;11203;50.870;20.682;2023-02-12T09:38:41;1.50;1.00
21762;DHT22;11203;50.870;20.682;2023-02-12T09:47:12;1.20;99.90
21762;DHT22;11203;50.870;20.682;2023-02-12T09:49:48;1.20;99.90
21762;DHT22;11203;50.870;20.682;2023-02-12T09:52:27;1.20;99.90
21762;DHT22;11203;50.870;20.682;2023-02-12T09:54:54;1.20;99.90
21762;DHT22;11203;50.870;20.682;2023-02-12T09:57:29;1.30;99.90
21762;DHT22;11203;50.870;20.682;2023-02-12T10:00:10;1.20;99.90
21762;DHT22;11203;50.870;20.682;2023-02-12T10:02:41;1.20;99.90
21762;DHT22;11203;50.870;20.682;2023-02-12T10:05:16;1.20;99.90
21762;DHT22;11203;50.870;20.682;2023-02-12T10:08:01;1.20;1.00
21762;DHT22;11203;50.870;20.682;2023-02-12T10:13:52;1.30;1.00
21762;DHT22;11203;50.870;20.682;2023-02-12T10:19:50;1.40;99.90
21762;DHT22;11203;50.870;20.682;2023-02-12T10:25:58;1.40;99.90
21762;DHT22;11203;50.870;20.682;2023-02-12T10:28:34;1.50;99.90
21762;DHT22;11203;50.870;20.682;2023-02-12T10:31:33;1.60;99.90
21762;DHT22;11203;50.870;20.682;2023-02-12T10:33:58;1.70;1.00
21762;DHT22;11203;50.870;20.682;2023-02-12T10:44:33;1.90;1.00
21762;DHT22;11203;50.870;20.682;2023-02-12T10:47:00;1.90;1.00
21762;DHT22;11203;50.870;20.682;2023-02-12T10:49:30;1.70;1.00
21762;DHT22;11203;50.870;20.682;2023-02-12T10:54:48;2.00;1.00
21762;DHT22;11203;50.870;20.682;2023-02-12T10:57:27;2.00;1.00
21762;DHT22;11203;50.870;20.682;2023-02-12T10:59:56;2.00;1.00
21762;DHT22;11203;50.870;20.682;2023-02-12T11:02:59;2.00;1.00
21762;DHT22;11203;50.870;20.682;2023-02-12T11:05:33;1.80;1.00
21762;DHT22;11203;50.870;20.682;2023-02-12T11:08:00;1.80;1.00
21762;DHT22;11203;50.870;20.682;2023-02-12T11:12:54;1.70;1.00
21762;DHT22;11203;50.870;20.682;2023-02-12T11:15:25;1.80;1.00
21762;DHT22;11203;50.870;20.682;2023-02-12T11:18:01;1.80;1.00
21762;DHT22;11203;50.870;20.682;2023-02-12T11:23:01;1.90;1.00
21762;DHT22;11203;50.870;20.682;2023-02-12T11:25:34;2.00;1.00
21762;DHT22;11203;50.870;20.682;2023-02-12T11:28:16;2.00;1.00
21762;DHT22;11203;50.870;20.682;2023-02-12T11:31:16;1.90;1.00
21762;DHT22;11203;50.870;20.682;2023-02-12T11:36:43;2.00;1.00
21762;DHT22;11203;50.870;20.682;2023-02-12T11:39:26;2.20;99.90
21762;DHT22;11203;50.870;20.682;2023-02-12T11:41:59;2.30;99.90
21762;DHT22;11203;50.870;20.682;2023-02-12T11:44:56;2.30;99.90
21762;DHT22;11203;50.870;20.682;2023-02-12T11:47:29;2.10;1.00
21762;DHT22;11203;50.870;20.682;2023-02-12T11:50:02;2.00;1.00
21762;DHT22;11203;50.870;20.682;2023-02-12T11:52:33;2.10;1.00
21762;DHT22;11203;50.870;20.682;2023-02-12T11:55:04;2.00;1.00
21762;DHT22;11203;50.870;20.682;2023-02-12T11:57:43;1.80;1.00
21762;DHT22;11203;50.870;20.682;2023-02-12T12:00:24;1.70;1.00
21762;DHT22;11203;50.870;20.682;2023-02-12T12:03:15;1.90;99.90
21762;DHT22;11203;50.870;20.682;2023-02-12T12:05:52;1.70;1.00
21762;DHT22;11203;50.870;20.682;2023-02-12T12:14:34;2.00;1.00
21762;DHT22;11203;50.870;20.682;2023-02-12T12:17:26;1.90;1.00
21762;DHT22;11203;50.870;20.682;2023-02-12T12:20:22;2.10;1.00
21762;DHT22;11203;50.870;20.682;2023-02-12T12:23:39;2.20;1.00
21762;DHT22;11203;50.870;20.682;2023-02-12T12:25:54;2.20;1.00
21762;DHT22;11203;50.870;20.682;2023-02-12T12:28:43;2.20;1.00
21762;DHT22;11203;50.870;20.682;2023-02-12T12:31:14;1.80;1.00
21762;DHT22;11203;50.870;20.682;2023-02-12T12:33:56;1.70;1.00
21762;DHT22;11203;50.870;20.682;2023-02-12T12:48:57;1.50;1.00
21762;DHT22;11203;50.870;20.682;2023-02-12T12:51:37;1.50;1.00
21762;DHT22;11203;50.870;20.682;2023-02-12T12:54:32;1.40;1.00
21762;DHT22;11203;50.870;20.682;2023-02-12T13:00:30;1.60;1.00
21762;DHT22;11203;50.870;20.682;2023-02-12T13:09:31;1.20;1.00
21762;DHT22;11203;50.870;20.682;2023-02-12T13:15:02;1.30;1.00
21762;DHT22;11203;50.870;20.682;2023-02-12T13:23:46;1.30;1.00
21762;DHT22;11203;50.870;20.682;2023-02-12T13:26:40;1.40;1.00
21762;DHT22;11203;50.870;20.682;2023-02-12T13:29:37;1.40;1.00
21762;DHT22;11203;50.870;20.682;2023-02-12T13:32:09;1.50;1.00
21762;DHT22;11203;50.870;20.682;2023-02-12T13:34:38;1.50;1.00
21762;DHT22;11203;50.870;20.682;2023-02-12T13:37:14;1.50;1.00
21762;DHT22;11203;50.870;20.682;2023-02-12T13:39:47;1.50;1.00
21762;DHT22;11203;50.870;20.682;2023-02-12T13:45:29;1.60;1.00
21762;DHT22;11203;50.870;20.682;2023-02-12T13:53:54;1.60;1.00
21762;DHT22;11203;50.870;20.682;2023-02-12T14:01:55;1.70;1.00
21762;DHT22;11203;50.870;20.682;2023-02-12T14:07:03;1.60;1.00
21762;DHT22;11203;50.870;20.682;2023-02-12T14:14:52;1.60;1.00
21762;DHT22;11203;50.870;20.682;2023-02-12T14:23:24;1.60;1.00
21762;DHT22;11203;50.870;20.682;2023-02-12T14:26:17;1.60;1.00
21762;DHT22;11203;50.870;20.682;2023-02-12T14:31:32;1.60;1.00
21762;DHT22;11203;50.870;20.682;2023-02-12T14:36:38;1.60;1.00
21762;DHT22;11203;50.870;20.682;2023-02-12T14:41:48;1.50;1.00
21762;DHT22;11203;50.870;20.682;2023-02-12T14:46:44;1.50;1.00
21762;DHT22;11203;50.870;20.682;2023-02-12T14:51:59;1.50;1.00
21762;DHT22;11203;50.870;20.682;2023-02-12T14:54:31;1.60;1.00
21762;DHT22;11203;50.870;20.682;2023-02-12T14:57:43;1.50;1.00
21762;DHT22;11203;50.870;20.682;2023-02-12T15:00:22;1.50;1.00
21762;DHT22;11203;50.870;20.682;2023-02-12T15:02:54;1.40;1.00
21762;DHT22;11203;50.870;20.682;2023-02-12T15:05:30;1.40;1.00
21762;DHT22;11203;50.870;20.682;2023-02-12T15:08:31;1.40;1.00
21762;DHT22;11203;50.870;20.682;2023-02-12T15:16:53;1.30;99.90
21762;DHT22;11203;50.870;20.682;2023-02-12T15:22:40;1.20;99.90
21762;DHT22;11203;50.870;20.682;2023-02-12T15:25:23;1.20;99.90
21762;DHT22;11203;50.870;20.682;2023-02-12T15:28:20;1.10;99.90
21762;DHT22;11203;50.870;20.682;2023-02-12T15:30:52;1.10;99.90
21762;DHT22;11203;50.870;20.682;2023-02-12T15:33:26;1.10;99.90
21762;DHT22;11203;50.870;20.682;2023-02-12T15:35:53;1.10;99.90
21762;DHT22;11203;50.870;20.682;2023-02-12T15:38:22;1.00;99.90
21762;DHT22;11203;50.870;20.682;2023-02-12T15:41:00;1.00;1.00
21762;DHT22;11203;50.870;20.682;2023-02-12T15:43:30;0.90;1.00
21762;DHT22;11203;50.870;20.682;2023-02-12T15:46:02;0.90;1.00
21762;DHT22;11203;50.870;20.682;2023-02-12T15:48:35;0.80;1.00
21762;DHT22;11203;50.870;20.682;2023-02-12T15:51:37;0.80;99.90
21762;DHT22;11203;50.870;20.682;2023-02-12T15:54:06;0.70;99.90
21762;DHT22;11203;50.870;20.682;2023-02-12T15:56:33;0.70;1.00
21762;DHT22;11203;50.870;20.682;2023-02-12T15:59:02;0.70;1.00
21762;DHT22;11203;50.870;20.682;2023-02-12T16:01:33;0.60;99.90
21762;DHT22;11203;50.870;20.682;2023-02-12T16:04:05;0.70;99.90
21762;DHT22;11203;50.870;20.682;2023-02-12T16:06:33;0.60;99.90
21762;DHT22;11203;50.870;20.682;2023-02-12T16:09:05;0.60;51.70
21762;DHT22;11203;50.870;20.682;2023-02-12T16:11:34;0.50;1.00
21762;DHT22;11203;50.870;20.682;2023-02-12T16:14:07;0.50;1.00
21762;DHT22;11203;50.870;20.682;2023-02-12T16:16:53;0.40;1.00
21762;DHT22;11203;50.870;20.682;2023-02-12T16:19:23;0.50;1.00
21762;DHT22;11203;50.870;20.682;2023-02-12T16:22:07;0.40;99.90
21762;DHT22;11203;50.870;20.682;2023-02-12T16:24:37;0.40;1.00
21762;DHT22;11203;50.870;20.682;2023-02-12T16:29:45;0.30;99.90
21762;DHT22;11203;50.870;20.682;2023-02-12T16:32:33;0.20;99.90
21762;DHT22;11203;50.870;20.682;2023-02-12T16:56:14;0.10;99.90
21762;DHT22;11203;50.870;20.682;2023-02-12T16:58:44;0.30;1.00
21762;DHT22;11203;50.870;20.682;2023-02-12T17:03:52;0.10;1.00
21762;DHT22;11203;50.870;20.682;2023-02-12T17:06:21;0.10;1.00
21762;DHT22;11203;50.870;20.682;2023-02-12T17:08:49;0.00;99.90
21762;DHT22;11203;50.870;20.682;2023-02-12T17:11:16;0.00;1.00
21762;DHT22;11203;50.870;20.682;2023-02-12T17:13:45;0.00;1.00
21762;DHT22;11203;50.870;20.682;2023-02-12T17:16:12;-0.10;1.00
21762;DHT22;11203;50.870;20.682;2023-02-12T17:18:39;0.00;99.90
21762;DHT22;11203;50.870;20.682;2023-02-12T17:21:34;-0.10;16.20
21762;DHT22;11203;50.870;20.682;2023-02-12T17:26:46;-0.30;1.00
21762;DHT22;11203;50.870;20.682;2023-02-12T17:29:16;-0.30;99.90
21762;DHT22;11203;50.870;20.682;2023-02-12T17:31:43;-0.30;99.90
21762;DHT22;11203;50.870;20.682;2023-02-12T17:34:09;-0.30;99.90
21762;DHT22;11203;50.870;20.682;2023-02-12T17:36:36;-0.10;99.90
21762;DHT22;11203;50.870;20.682;2023-02-12T17:39:05;-0.40;1.00
21762;DHT22;11203;50.870;20.682;2023-02-12T17:41:32;-0.40;1.00
21762;DHT22;11203;50.870;20.682;2023-02-12T17:43:59;-0.40;1.00
21762;DHT22;11203;50.870;20.682;2023-02-12T17:46:27;-0.50;1.00
21762;DHT22;11203;50.870;20.682;2023-02-12T17:48:55;-0.50;1.00
21762;DHT22;11203;50.870;20.682;2023-02-12T17:51:21;-0.50;1.00
21762;DHT22;11203;50.870;20.682;2023-02-12T17:53:47;-0.50;1.00
21762;DHT22;11203;50.870;20.682;2023-02-12T17:56:16;-0.40;1.00
21762;DHT22;11203;50.870;20.682;2023-02-12T17:58:45;-0.60;1.00
21762;DHT22;11203;50.870;20.682;2023-02-12T18:01:14;-0.60;1.00
21762;DHT22;11203;50.870;20.682;2023-02-12T18:03:42;-0.60;1.00
21762;DHT22;11203;50.870;20.682;2023-02-12T18:06:09;-0.70;1.00
21762;DHT22;11203;50.870;20.682;2023-02-12T18:08:39;-0.80;99.90
21762;DHT22;11203;50.870;20.682;2023-02-12T18:11:07;-0.70;99.90
21762;DHT22;11203;50.870;20.682;2023-02-12T18:13:35;-0.80;99.90
21762;DHT22;11203;50.870;20.682;2023-02-12T18:16:08;-0.70;1.00
21762;DHT22;11203;50.870;20.682;2023-02-12T18:18:36;-0.70;1.00
21762;DHT22;11203;50.870;20.682;2023-02-12T18:21:11;-0.70;1.00
21762;DHT22;11203;50.870;20.682;2023-02-12T18:23:39;-0.80;1.00
21762;DHT22;11203;50.870;20.682;2023-02-12T18:26:11;-0.50;99.90
21762;DHT22;11203;50.870;20.682;2023-02-12T18:28:39;-0.70;99.90
21762;DHT22;11203;50.870;20.682;2023-02-12T18:31:06;-0.80;99.90
21762;DHT22;11203;50.870;20.682;2023-02-12T18:33:33;-0.80;1.00
21762;DHT22;11203;50.870;20.682;2023-02-12T18:36:10;-0.80;1.00
21762;DHT22;11203;50.870;20.682;2023-02-12T18:38:45;-0.80;1.00
21762;DHT22;11203;50.870;20.682;2023-02-12T18:41:18;-0.80;1.00
21762;DHT22;11203;50.870;20.682;2023-02-12T18:43:46;-0.90;99.90
21762;DHT22;11203;50.870;20.682;2023-02-12T18:46:21;-1.00;1.00
21762;DHT22;11203;50.870;20.682;2023-02-12T18:48:49;-1.00;99.90
21762;DHT22;11203;50.870;20.682;2023-02-12T18:51:18;-1.10;99.90
21762;DHT22;11203;50.870;20.682;2023-02-12T18:53:52;-1.10;99.90
21762;DHT22;11203;50.870;20.682;2023-02-12T18:56:19;-1.10;99.90
21762;DHT22;11203;50.870;20.682;2023-02-12T18:58:45;-1.10;99.90
21762;DHT22;11203;50.870;20.682;2023-02-12T19:01:14;-1.10;99.90
21762;DHT22;11203;50.870;20.682;2023-02-12T19:03:42;-1.20;99.90
21762;DHT22;11203;50.870;20.682;2023-02-12T19:06:09;-1.10;1.00
21762;DHT22;11203;50.870;20.682;2023-02-12T19:08:36;-1.20;99.90
21762;DHT22;11203;50.870;20.682;2023-02-12T19:11:05;-1.20;1.00
21762;DHT22;11203;50.870;20.682;2023-02-12T19:13:32;-1.10;1.00